Time;durP1;ratioP1;P1;durP2;ratioP2;P2;SDS_P1;SDS_P2;PMS_P1;PMS_P2;Temp;Humidity;BMP_temperature;BMP_pressure;BME280_temperature;BME280_humidity;BME280_pressure;Samples;Min_cycle;Max_cycle;Signal;HPM_P1;HPM_P2
2022/09/13 00:01:26;;;;;;;;;;;18.80;72.90;;;;;;6158322;23;19900;-81
2022/09/13 00:03:53;;;;;;;;;;;18.90;72.40;;;;;;6162738;23;19941;-79
2022/09/13 00:06:21;;;;;;;;;;;19.00;71.90;;;;;;6153198;23;20306;-82
2022/09/13 00:08:47;;;;;;;;;;;19.00;71.70;;;;;;6158573;23;20000;-82
2022/09/13 00:11:22;;;;;;;;;;;19.00;71.40;;;;;;6160616;23;19917;-79
2022/09/13 00:13:49;;;;;;;;;;;19.00;71.40;;;;;;6156185;23;19920;-81
2022/09/13 00:16:17;;;;;;;;;;;19.10;71.30;;;;;;6157022;23;19917;-82
2022/09/13 00:18:44;;;;;;;;;;;19.10;71.10;;;;;;6156473;23;19983;-79
2022/09/13 00:21:12;;;;;;;;;;;19.10;70.40;;;;;;6154342;23;20352;-82
2022/09/13 00:23:42;;;;;;;;;;;19.20;69.90;;;;;;6159582;23;19920;-79
2022/09/13 00:26:10;;;;;;;;;;;19.30;69.70;;;;;;6156915;23;19921;-80
2022/09/13 00:28:37;;;;;;;;;;;19.30;69.00;;;;;;6163818;23;20451;-80
2022/09/13 00:31:05;;;;;;;;;;;19.40;68.70;;;;;;6159480;23;20413;-80
2022/09/13 00:33:32;;;;;;;;;;;19.40;68.70;;;;;;6162280;23;20244;-80
2022/09/13 00:36:03;;;;;;;;;;;19.50;68.90;;;;;;6154285;23;19939;-81
2022/09/13 00:38:30;;;;;;;;;;;19.50;68.30;;;;;;6160377;23;19916;-80
2022/09/13 00:40:57;;;;;;;;;;;19.50;68.60;;;;;;6162547;23;20322;-79
2022/09/13 00:43:44;;;;;;;;;;;19.50;68.30;;;;;;6161480;23;19923;-80
2022/09/13 00:46:23;;;;;;;;;;;19.50;68.10;;;;;;6155040;23;19947;-79
2022/09/13 00:48:52;;;;;;;;;;;19.50;67.90;;;;;;6157292;23;19999;-79
2022/09/13 00:51:19;;;;;;;;;;;19.50;67.90;;;;;;6157876;23;19920;-82
2022/09/13 00:53:47;;;;;;;;;;;19.60;67.80;;;;;;6162820;23;19924;-79
2022/09/13 00:56:18;;;;;;;;;;;19.60;67.80;;;;;;6157634;23;19923;-82
2022/09/13 00:58:47;;;;;;;;;;;19.60;67.70;;;;;;6155345;23;19917;-79
2022/09/13 01:01:15;;;;;;;;;;;19.50;68.10;;;;;;6156282;23;19987;-79
2022/09/13 01:03:44;;;;;;;;;;;19.50;68.60;;;;;;6157393;23;19964;-79
2022/09/13 01:06:14;;;;;;;;;;;19.40;68.40;;;;;;6159111;23;19924;-82
2022/09/13 01:08:42;;;;;;;;;;;19.40;68.20;;;;;;6158103;23;19916;-81
2022/09/13 01:11:12;;;;;;;;;;;19.40;68.10;;;;;;6147655;23;19937;-79
2022/09/13 01:13:40;;;;;;;;;;;19.30;68.50;;;;;;6163301;23;19943;-83
2022/09/13 01:16:07;;;;;;;;;;;19.30;68.70;;;;;;6156289;23;19927;-80
2022/09/13 01:18:33;;;;;;;;;;;19.20;69.20;;;;;;6164380;23;19920;-80
2022/09/13 01:21:09;;;;;;;;;;;19.20;68.90;;;;;;6155898;23;19944;-81
2022/09/13 01:23:55;;;;;;;;;;;19.20;69.10;;;;;;6161537;23;19943;-80
2022/09/13 01:26:28;;;;;;;;;;;19.20;68.40;;;;;;6160939;23;19916;-80
2022/09/13 01:28:55;;;;;;;;;;;19.20;68.30;;;;;;6155099;23;20298;-80
2022/09/13 01:31:21;;;;;;;;;;;19.30;68.50;;;;;;6162832;23;20246;-79
2022/09/13 01:34:13;;;;;;;;;;;19.30;68.00;;;;;;6162300;23;19940;-81
2022/09/13 01:36:52;;;;;;;;;;;19.30;68.10;;;;;;6154494;23;19999;-80
2022/09/13 01:39:31;;;;;;;;;;;19.30;67.80;;;;;;6161291;23;20253;-83
2022/09/13 01:42:07;;;;;;;;;;;19.30;67.40;;;;;;6161770;23;20389;-80
2022/09/13 01:44:46;;;;;;;;;;;19.30;67.60;;;;;;6155084;23;19917;-80
2022/09/13 01:47:16;;;;;;;;;;;19.30;67.70;;;;;;6155667;23;19991;-80
2022/09/13 01:49:48;;;;;;;;;;;19.30;67.70;;;;;;6159569;23;19916;-80
2022/09/13 01:52:21;;;;;;;;;;;19.30;67.80;;;;;;6155880;23;19916;-80
2022/09/13 01:55:09;;;;;;;;;;;19.30;67.90;;;;;;6156769;23;19947;-80
2022/09/13 01:57:59;;;;;;;;;;;19.20;67.90;;;;;;6164340;23;20313;-82
2022/09/13 02:04:03;;;;;;;;;;;19.20;67.20;;;;;;6155213;23;19967;-80
2022/09/13 02:06:32;;;;;;;;;;;19.30;66.80;;;;;;6154291;23;19917;-80
2022/09/13 02:09:00;;;;;;;;;;;19.30;66.70;;;;;;6158758;23;19936;-80
2022/09/13 02:11:27;;;;;;;;;;;19.30;66.60;;;;;;6160933;23;19966;-81
2022/09/13 02:13:54;;;;;;;;;;;19.30;66.70;;;;;;6162880;23;19940;-80
2022/09/13 02:16:33;;;;;;;;;;;19.30;66.60;;;;;;6154173;23;19952;-79
2022/09/13 02:19:09;;;;;;;;;;;19.30;66.70;;;;;;6156419;23;19975;-82
2022/09/13 02:21:40;;;;;;;;;;;19.20;66.70;;;;;;6153745;23;19987;-82
2022/09/13 02:24:07;;;;;;;;;;;19.20;66.70;;;;;;6160348;23;19921;-82
2022/09/13 02:26:36;;;;;;;;;;;19.20;66.70;;;;;;6153701;23;19923;-80
2022/09/13 02:29:06;;;;;;;;;;;19.20;66.80;;;;;;6153173;23;19922;-80
2022/09/13 02:31:35;;;;;;;;;;;19.20;66.90;;;;;;6157505;23;19991;-82
2022/09/13 02:34:05;;;;;;;;;;;19.20;67.50;;;;;;6153040;23;19924;-80
2022/09/13 02:36:34;;;;;;;;;;;19.20;67.50;;;;;;6160344;23;19943;-81
2022/09/13 02:39:07;;;;;;;;;;;19.10;67.50;;;;;;6154970;23;20334;-80
2022/09/13 02:41:54;;;;;;;;;;;19.10;67.60;;;;;;6156442;23;19955;-80
2022/09/13 02:44:36;;;;;;;;;;;19.10;67.20;;;;;;6155091;23;19940;-81
2022/09/13 02:47:10;;;;;;;;;;;19.10;67.10;;;;;;6154529;23;19947;-82
2022/09/13 02:49:50;;;;;;;;;;;19.10;67.20;;;;;;6155977;23;20286;-80
2022/09/13 02:52:20;;;;;;;;;;;19.00;67.40;;;;;;6156133;23;19927;-82
2022/09/13 02:55:16;;;;;;;;;;;19.10;68.40;;;;;;6157212;23;19920;-81
2022/09/13 02:57:46;;;;;;;;;;;19.10;67.20;;;;;;6143533;23;19983;-80
2022/09/13 03:00:13;;;;;;;;;;;19.10;67.30;;;;;;6157959;23;19921;-80
2022/09/13 03:02:41;;;;;;;;;;;19.00;67.30;;;;;;6155327;23;19959;-79
2022/09/13 03:05:08;;;;;;;;;;;19.00;67.30;;;;;;6153808;23;20319;-79
2022/09/13 03:07:35;;;;;;;;;;;19.00;67.50;;;;;;6154996;23;20330;-80
2022/09/13 03:10:05;;;;;;;;;;;18.90;67.90;;;;;;6153874;23;19954;-80
2022/09/13 03:12:50;;;;;;;;;;;18.90;67.60;;;;;;6152536;23;20009;-80
2022/09/13 03:15:20;;;;;;;;;;;18.90;68.30;;;;;;6156377;23;19927;-80
2022/09/13 03:17:47;;;;;;;;;;;18.80;68.00;;;;;;6155576;23;19996;-80
2022/09/13 03:20:32;;;;;;;;;;;18.80;67.70;;;;;;6155815;23;19920;-80
2022/09/13 03:23:18;;;;;;;;;;;18.90;67.30;;;;;;6156054;23;20282;-80
2022/09/13 03:25:50;;;;;;;;;;;18.90;67.10;;;;;;6155273;23;19944;-80
2022/09/13 03:28:27;;;;;;;;;;;19.00;66.90;;;;;;6155073;23;19921;-79
2022/09/13 03:31:02;;;;;;;;;;;19.00;66.70;;;;;;6154543;23;19951;-80
2022/09/13 03:33:38;;;;;;;;;;;19.00;66.50;;;;;;6156410;23;20223;-80
2022/09/13 03:36:14;;;;;;;;;;;19.00;66.30;;;;;;6153361;23;19943;-80
2022/09/13 03:38:44;;;;;;;;;;;19.10;66.50;;;;;;6154494;23;19991;-80
2022/09/13 03:41:11;;;;;;;;;;;19.00;66.80;;;;;;6154882;23;19940;-81
2022/09/13 03:43:44;;;;;;;;;;;19.00;66.90;;;;;;6156181;23;19991;-80
2022/09/13 03:46:15;;;;;;;;;;;19.00;67.00;;;;;;6155535;23;19916;-81
2022/09/13 03:48:44;;;;;;;;;;;18.90;66.80;;;;;;6155189;23;19923;-82
2022/09/13 03:51:11;;;;;;;;;;;18.90;66.60;;;;;;6157854;23;20289;-80
2022/09/13 03:53:45;;;;;;;;;;;19.00;66.40;;;;;;6154885;23;19917;-80
2022/09/13 03:56:16;;;;;;;;;;;19.00;66.50;;;;;;6156904;23;19920;-82
2022/09/13 03:58:42;;;;;;;;;;;19.00;66.00;;;;;;6157097;23;19923;-80
2022/09/13 04:01:09;;;;;;;;;;;19.00;66.10;;;;;;6155378;23;19938;-80
2022/09/13 04:03:37;;;;;;;;;;;19.10;66.00;;;;;;6156096;23;19987;-82
2022/09/13 04:06:04;;;;;;;;;;;19.10;65.90;;;;;;6155128;23;19916;-80
2022/09/13 04:08:31;;;;;;;;;;;19.10;65.60;;;;;;6159402;23;19916;-83
2022/09/13 04:10:58;;;;;;;;;;;19.10;65.80;;;;;;6158020;23;19916;-80
2022/09/13 04:13:24;;;;;;;;;;;19.10;65.60;;;;;;6157301;23;19920;-80
2022/09/13 04:15:51;;;;;;;;;;;19.10;65.30;;;;;;6155167;23;19927;-80
2022/09/13 04:18:19;;;;;;;;;;;19.10;65.20;;;;;;6156147;23;19922;-82
2022/09/13 04:20:53;;;;;;;;;;;19.10;65.30;;;;;;6157479;23;19936;-79
2022/09/13 04:23:20;;;;;;;;;;;19.10;65.40;;;;;;6156468;23;19923;-80
2022/09/13 04:25:47;;;;;;;;;;;19.10;65.70;;;;;;6156989;23;19960;-82
2022/09/13 04:28:15;;;;;;;;;;;19.10;65.60;;;;;;6155881;23;20345;-81
2022/09/13 04:30:45;;;;;;;;;;;19.00;65.50;;;;;;6158780;23;20302;-82
2022/09/13 04:33:13;;;;;;;;;;;19.00;65.50;;;;;;6158089;23;19960;-81
2022/09/13 04:35:39;;;;;;;;;;;19.00;65.60;;;;;;6155472;23;19983;-82
2022/09/13 04:38:06;;;;;;;;;;;18.90;65.80;;;;;;6158175;23;19959;-81
2022/09/13 04:40:33;;;;;;;;;;;18.90;66.10;;;;;;6156563;23;19917;-83
2022/09/13 04:43:00;;;;;;;;;;;18.90;65.90;;;;;;6158038;23;19917;-80
2022/09/13 04:45:29;;;;;;;;;;;18.80;66.30;;;;;;6156067;23;19995;-81
2022/09/13 04:47:55;;;;;;;;;;;18.80;66.60;;;;;;6159115;23;19952;-83
2022/09/13 04:50:23;;;;;;;;;;;18.70;66.60;;;;;;6158186;23;19921;-80
2022/09/13 04:52:50;;;;;;;;;;;18.70;66.60;;;;;;6155468;23;20386;-80
2022/09/13 04:55:17;;;;;;;;;;;18.70;66.80;;;;;;6156639;23;19962;-80
2022/09/13 04:57:44;;;;;;;;;;;18.60;67.00;;;;;;6154530;23;19984;-81
2022/09/13 05:00:11;;;;;;;;;;;18.60;67.20;;;;;;6154260;23;19988;-82
2022/09/13 05:02:38;;;;;;;;;;;18.60;67.50;;;;;;6160661;23;19940;-80
2022/09/13 05:05:05;;;;;;;;;;;18.50;67.30;;;;;;6155652;23;19999;-82
2022/09/13 05:07:31;;;;;;;;;;;18.50;67.40;;;;;;6156255;23;19939;-80
2022/09/13 05:09:58;;;;;;;;;;;18.50;67.60;;;;;;6155301;23;20254;-82
2022/09/13 05:12:25;;;;;;;;;;;18.50;67.60;;;;;;6154923;23;19927;-80
2022/09/13 05:14:52;;;;;;;;;;;18.40;67.70;;;;;;6157185;23;19992;-80
2022/09/13 05:17:19;;;;;;;;;;;18.40;67.50;;;;;;6137436;23;20252;-75
2022/09/13 05:19:46;;;;;;;;;;;18.50;67.30;;;;;;6154627;23;20295;-74
2022/09/13 05:22:13;;;;;;;;;;;18.50;67.40;;;;;;6153948;23;19923;-74
2022/09/13 10:45:22;;;;;;;;;;;27.50;48.30;;;;;;6118773;23;19983;-80
2022/09/13 10:47:50;;;;;;;;;;;27.50;47.10;;;;;;6122134;23;19917;-80
2022/09/13 10:50:22;;;;;;;;;;;27.10;46.90;;;;;;6123536;23;19924;-80
2022/09/13 10:52:50;;;;;;;;;;;27.20;47.80;;;;;;6122882;23;19991;-80
2022/09/13 10:55:19;;;;;;;;;;;27.40;48.50;;;;;;6123586;23;19917;-80
2022/09/13 10:57:46;;;;;;;;;;;27.50;48.20;;;;;;6122919;23;19992;-80
2022/09/13 11:00:16;;;;;;;;;;;27.70;46.70;;;;;;6125103;23;19944;-80
2022/09/13 11:02:47;;;;;;;;;;;27.60;46.90;;;;;;6122714;23;20294;-80
2022/09/13 11:05:14;;;;;;;;;;;27.60;48.10;;;;;;6123498;23;19921;-80
2022/09/13 11:07:52;;;;;;;;;;;27.80;47.70;;;;;;6122550;23;19948;-81
2022/09/13 11:10:32;;;;;;;;;;;27.80;45.50;;;;;;6122637;23;19923;-80
2022/09/13 11:13:01;;;;;;;;;;;28.00;46.20;;;;;;6081655;23;19917;-80
2022/09/13 11:15:37;;;;;;;;;;;28.00;46.60;;;;;;6070315;23;19993;-82
2022/09/13 11:18:10;;;;;;;;;;;28.10;45.80;;;;;;6093854;23;19993;-80
2022/09/13 11:20:51;;;;;;;;;;;27.90;45.70;;;;;;6041735;23;19924;-81
2022/09/13 11:23:18;;;;;;;;;;;28.10;47.30;;;;;;6105772;23;19992;-81
2022/09/13 11:25:57;;;;;;;;;;;28.00;46.20;;;;;;6094318;23;19952;-80
2022/09/13 11:28:33;;;;;;;;;;;27.70;46.30;;;;;;6093576;23;19996;-80
2022/09/13 11:31:12;;;;;;;;;;;27.40;46.70;;;;;;6093076;23;19917;-80
2022/09/13 11:33:54;;;;;;;;;;;27.40;46.90;;;;;;6094934;23;19917;-80
2022/09/13 11:36:33;;;;;;;;;;;27.00;47.40;;;;;;6116510;23;19931;-80
2022/09/13 11:39:18;;;;;;;;;;;27.10;46.90;;;;;;6117581;23;19924;-81
2022/09/13 11:41:53;;;;;;;;;;;27.10;48.10;;;;;;6094399;23;19949;-80
2022/09/13 11:44:38;;;;;;;;;;;27.30;47.50;;;;;;6117584;23;19917;-80
2022/09/13 11:47:07;;;;;;;;;;;27.70;48.40;;;;;;6092705;23;19976;-80
2022/09/13 11:49:37;;;;;;;;;;;28.10;46.60;;;;;;6094035;23;19992;-81
2022/09/13 11:52:22;;;;;;;;;;;28.20;45.50;;;;;;6092553;23;20356;-81
2022/09/13 11:54:49;;;;;;;;;;;28.40;45.60;;;;;;6093614;23;19997;-80
2022/09/13 11:57:22;;;;;;;;;;;28.30;45.30;;;;;;6093373;23;19999;-80
2022/09/13 12:00:02;;;;;;;;;;;28.20;45.70;;;;;;6116058;23;19944;-80
2022/09/13 12:02:35;;;;;;;;;;;28.10;45.20;;;;;;6093850;23;20402;-80
2022/09/13 12:05:12;;;;;;;;;;;28.20;45.90;;;;;;6118355;23;19925;-81
2022/09/13 12:07:56;;;;;;;;;;;28.10;45.60;;;;;;6094056;23;19917;-80
2022/09/13 12:10:24;;;;;;;;;;;28.00;45.70;;;;;;6118603;23;20254;-80
2022/09/13 12:12:51;;;;;;;;;;;27.80;46.50;;;;;;6093495;23;19917;-81
2022/09/13 12:15:30;;;;;;;;;;;27.60;47.30;;;;;;6118243;23;19917;-81
2022/09/13 12:18:00;;;;;;;;;;;27.70;48.80;;;;;;6094805;23;19947;-80
2022/09/13 12:20:33;;;;;;;;;;;28.10;48.10;;;;;;6120056;23;20003;-81
2022/09/13 12:23:02;;;;;;;;;;;28.30;46.90;;;;;;6119696;23;19948;-81
2022/09/13 12:26:01;;;;;;;;;;;28.40;45.00;;;;;;6096968;23;19945;-80
2022/09/13 12:28:32;;;;;;;;;;;28.50;46.70;;;;;;6064411;23;19917;-81
2022/09/13 12:31:18;;;;;;;;;;;28.50;46.30;;;;;;6119866;23;19944;-81
2022/09/13 12:33:46;;;;;;;;;;;28.30;45.00;;;;;;6119179;23;19917;-80
2022/09/13 12:36:13;;;;;;;;;;;28.10;45.30;;;;;;6119874;23;20415;-81
2022/09/13 12:39:00;;;;;;;;;;;28.20;46.00;;;;;;6094915;23;19917;-81
2022/09/13 12:41:42;;;;;;;;;;;28.20;46.50;;;;;;6119504;23;19991;-81
2022/09/13 12:44:15;;;;;;;;;;;28.50;46.80;;;;;;6094404;23;20352;-80
2022/09/13 12:46:56;;;;;;;;;;;28.70;46.30;;;;;;6096581;23;20343;-80
2022/09/13 12:49:26;;;;;;;;;;;28.50;46.20;;;;;;6095166;23;19917;-80
2022/09/13 12:52:09;;;;;;;;;;;28.50;46.50;;;;;;6095884;23;19997;-81
2022/09/13 12:54:57;;;;;;;;;;;28.50;47.20;;;;;;6095327;23;19921;-80
2022/09/13 12:57:35;;;;;;;;;;;28.70;46.70;;;;;;6119604;23;19952;-80
2022/09/13 13:00:13;;;;;;;;;;;29.10;46.30;;;;;;6095072;23;19921;-80
2022/09/13 13:02:41;;;;;;;;;;;28.80;46.10;;;;;;6119137;23;19917;-80
2022/09/13 13:05:29;;;;;;;;;;;28.90;46.00;;;;;;6120073;23;19988;-80
2022/09/13 13:07:58;;;;;;;;;;;29.00;45.00;;;;;;6119452;23;19947;-80
2022/09/13 13:10:29;;;;;;;;;;;29.20;44.80;;;;;;6119635;23;19941;-80
2022/09/13 13:13:08;;;;;;;;;;;29.40;44.50;;;;;;6118838;23;19917;-80
2022/09/13 13:15:35;;;;;;;;;;;29.40;44.10;;;;;;6095429;23;20072;-81
2022/09/13 13:18:28;;;;;;;;;;;29.40;44.40;;;;;;6095270;23;20424;-80
2022/09/13 13:20:55;;;;;;;;;;;29.20;44.00;;;;;;6091870;23;19992;-81
2022/09/13 13:23:25;;;;;;;;;;;29.00;42.70;;;;;;6097166;23;19924;-81
2022/09/13 13:26:12;;;;;;;;;;;29.10;45.00;;;;;;6095114;23;20042;-82
2022/09/13 13:28:42;;;;;;;;;;;29.20;43.60;;;;;;6086385;23;19921;-80
2022/09/13 13:31:26;;;;;;;;;;;29.20;44.40;;;;;;6095841;23;19917;-80
2022/09/13 13:33:54;;;;;;;;;;;29.10;43.20;;;;;;6094846;23;19925;-81
2022/09/13 13:36:32;;;;;;;;;;;29.30;44.10;;;;;;6097219;23;19917;-81
2022/09/13 13:39:00;;;;;;;;;;;29.60;42.70;;;;;;6119588;23;19945;-81
2022/09/13 13:41:34;;;;;;;;;;;29.70;40.80;;;;;;6119907;23;19921;-80
2022/09/13 13:44:16;;;;;;;;;;;30.00;43.10;;;;;;6094953;23;19917;-80
2022/09/13 13:46:43;;;;;;;;;;;30.00;41.10;;;;;;6094653;23;19949;-81
2022/09/13 13:49:31;;;;;;;;;;;30.10;41.60;;;;;;6095476;23;20000;-80
2022/09/13 13:52:05;;;;;;;;;;;30.20;42.40;;;;;;6096121;23;19924;-80
2022/09/13 13:54:44;;;;;;;;;;;30.40;41.60;;;;;;6095316;23;19945;-81
2022/09/13 13:57:25;;;;;;;;;;;30.30;40.60;;;;;;6094703;23;19941;-81
2022/09/13 13:59:54;;;;;;;;;;;30.40;40.30;;;;;;6094559;23;20334;-81
2022/09/13 14:02:24;;;;;;;;;;;30.00;40.70;;;;;;6119744;23;19945;-81
2022/09/13 14:05:00;;;;;;;;;;;29.90;42.00;;;;;;6118857;23;19917;-81
2022/09/13 14:07:34;;;;;;;;;;;29.70;41.00;;;;;;6095612;23;20433;-81
2022/09/13 14:10:10;;;;;;;;;;;29.70;42.30;;;;;;6118838;23;20353;-81
2022/09/13 14:12:45;;;;;;;;;;;29.60;41.10;;;;;;6119316;23;20262;-80
2022/09/13 14:15:20;;;;;;;;;;;29.60;42.40;;;;;;6096143;23;20055;-80
2022/09/13 14:18:06;;;;;;;;;;;29.50;42.80;;;;;;6094637;23;19921;-83
2022/09/13 14:20:32;;;;;;;;;;;29.20;43.70;;;;;;6094518;23;19954;-80
2022/09/13 14:23:17;;;;;;;;;;;28.60;44.20;;;;;;6118732;23;19944;-80
2022/09/13 14:25:44;;;;;;;;;;;28.40;44.80;;;;;;6119668;23;19917;-80
2022/09/13 14:28:16;;;;;;;;;;;28.20;44.80;;;;;;6095754;23;19992;-80
2022/09/13 14:30:43;;;;;;;;;;;28.30;45.00;;;;;;6119283;23;19991;-80
2022/09/13 14:33:20;;;;;;;;;;;28.20;45.40;;;;;;6118435;23;19988;-80
2022/09/13 14:35:55;;;;;;;;;;;28.30;46.40;;;;;;6119462;23;19948;-80
2022/09/13 14:38:25;;;;;;;;;;;28.30;46.30;;;;;;6118703;23;19952;-80
2022/09/13 14:40:52;;;;;;;;;;;28.20;46.10;;;;;;6119466;23;20334;-80
2022/09/13 14:43:20;;;;;;;;;;;28.20;47.40;;;;;;6118366;23;19941;-79
2022/09/13 14:46:13;;;;;;;;;;;28.20;46.30;;;;;;6061809;23;20005;-80
2022/09/13 14:48:50;;;;;;;;;;;28.20;45.90;;;;;;6022705;23;19918;-81
2022/09/13 14:51:20;;;;;;;;;;;28.10;46.20;;;;;;6060159;23;19965;-81
2022/09/13 14:53:49;;;;;;;;;;;28.10;46.00;;;;;;6061338;23;20369;-81
2022/09/13 14:56:20;;;;;;;;;;;28.20;46.90;;;;;;6037912;23;19945;-83
2022/09/13 14:58:50;;;;;;;;;;;28.10;46.20;;;;;;6061205;23;19925;-81
2022/09/13 15:01:20;;;;;;;;;;;28.20;46.80;;;;;;6060460;23;20000;-81
2022/09/13 15:03:47;;;;;;;;;;;28.20;46.10;;;;;;6061295;23;19969;-80
2022/09/13 15:06:26;;;;;;;;;;;28.40;46.20;;;;;;6061187;23;20012;-80
2022/09/13 15:08:56;;;;;;;;;;;28.40;46.20;;;;;;6060336;23;19941;-81
2022/09/13 15:11:31;;;;;;;;;;;28.70;45.20;;;;;;6061041;23;19970;-81
2022/09/13 15:14:21;;;;;;;;;;;28.60;44.50;;;;;;6036415;23;19977;-80
2022/09/13 15:16:49;;;;;;;;;;;28.60;44.50;;;;;;6049446;23;19997;-81
2022/09/13 15:19:26;;;;;;;;;;;28.50;45.20;;;;;;6060787;23;20254;-80
2022/09/13 15:22:01;;;;;;;;;;;28.30;46.00;;;;;;6060099;23;19996;-81
2022/09/13 15:24:30;;;;;;;;;;;28.40;46.90;;;;;;6038813;23;19941;-81
2022/09/13 15:27:15;;;;;;;;;;;28.40;46.60;;;;;;6060075;23;19926;-80
2022/09/13 15:29:47;;;;;;;;;;;28.60;46.80;;;;;;6060206;23;19924;-81
2022/09/13 15:32:40;;;;;;;;;;;28.80;45.10;;;;;;6060742;23;19917;-80
2022/09/13 15:35:24;;;;;;;;;;;28.90;46.30;;;;;;6032555;23;20020;-80
2022/09/13 15:38:00;;;;;;;;;;;28.80;46.90;;;;;;6059922;23;19945;-80
2022/09/13 15:40:39;;;;;;;;;;;28.70;46.10;;;;;;6060783;23;19941;-81
2022/09/13 15:43:06;;;;;;;;;;;28.60;46.60;;;;;;6059783;23;19989;-80
2022/09/13 15:45:33;;;;;;;;;;;28.70;46.60;;;;;;6109367;23;20334;-79
2022/09/13 15:48:00;;;;;;;;;;;28.80;46.10;;;;;;6093496;23;19968;-81
2022/09/13 15:50:30;;;;;;;;;;;28.60;47.30;;;;;;6094326;23;19917;-80
2022/09/13 15:52:58;;;;;;;;;;;28.50;46.80;;;;;;6117680;23;19988;-80
2022/09/13 15:55:26;;;;;;;;;;;28.50;46.50;;;;;;6118934;23;19917;-81
2022/09/13 15:57:54;;;;;;;;;;;28.40;46.40;;;;;;6117564;23;19945;-81
2022/09/13 16:00:22;;;;;;;;;;;28.50;46.90;;;;;;6118355;23;20007;-80
2022/09/13 16:02:48;;;;;;;;;;;28.40;46.70;;;;;;6117823;23;19996;-81
2022/09/13 16:05:16;;;;;;;;;;;28.70;47.10;;;;;;6094264;23;20397;-80
2022/09/13 16:07:43;;;;;;;;;;;28.90;46.70;;;;;;6116933;23;19921;-81
2022/09/13 16:10:14;;;;;;;;;;;29.00;45.90;;;;;;6116281;23;20286;-81
2022/09/13 16:12:41;;;;;;;;;;;29.00;46.10;;;;;;6118249;23;19984;-81
2022/09/13 16:15:08;;;;;;;;;;;28.90;45.40;;;;;;6117953;23;19959;-80
2022/09/13 16:17:34;;;;;;;;;;;28.80;46.20;;;;;;6118358;23;19937;-80
2022/09/13 16:20:02;;;;;;;;;;;28.70;46.80;;;;;;6118022;23;19917;-81
2022/09/13 16:22:29;;;;;;;;;;;28.50;46.90;;;;;;6118690;23;20394;-81
2022/09/13 16:24:56;;;;;;;;;;;28.50;47.20;;;;;;6119302;23;19988;-81
2022/09/13 16:27:25;;;;;;;;;;;28.30;48.20;;;;;;6120118;23;20000;-81
2022/09/13 16:29:56;;;;;;;;;;;28.20;48.80;;;;;;6116864;23;20242;-80
2022/09/13 16:32:23;;;;;;;;;;;28.20;49.50;;;;;;6118786;23;19949;-80
2022/09/13 16:34:49;;;;;;;;;;;28.10;49.40;;;;;;6117626;23;19917;-80
2022/09/13 16:37:17;;;;;;;;;;;27.80;49.50;;;;;;6118573;23;19916;-79
2022/09/13 16:39:44;;;;;;;;;;;27.60;50.40;;;;;;6117982;23;19917;-79
2022/09/13 16:42:12;;;;;;;;;;;27.40;50.00;;;;;;6117686;23;19925;-79
2022/09/13 16:44:39;;;;;;;;;;;27.20;50.90;;;;;;6117868;23;19992;-80
2022/09/13 16:47:06;;;;;;;;;;;27.00;51.60;;;;;;6117367;23;20245;-79
2022/09/13 16:49:33;;;;;;;;;;;26.90;52.10;;;;;;6093617;23;20000;-80
2022/09/13 16:52:00;;;;;;;;;;;26.90;52.60;;;;;;6116524;23;19917;-79
2022/09/13 16:54:29;;;;;;;;;;;26.80;53.20;;;;;;6093451;23;20419;-80
2022/09/13 16:56:57;;;;;;;;;;;26.60;53.30;;;;;;6117101;23;19917;-79
2022/09/13 16:59:24;;;;;;;;;;;26.60;53.40;;;;;;6118190;23;20294;-79
2022/09/13 17:01:51;;;;;;;;;;;26.50;53.90;;;;;;6093313;23;19992;-79
2022/09/13 17:04:18;;;;;;;;;;;26.50;54.60;;;;;;6119872;23;20249;-79
2022/09/13 17:06:45;;;;;;;;;;;26.40;54.80;;;;;;6096835;23;19952;-79
2022/09/13 17:09:12;;;;;;;;;;;26.40;54.70;;;;;;6118792;23;19937;-79
2022/09/13 17:11:39;;;;;;;;;;;26.40;55.20;;;;;;6118213;23;20327;-79
2022/09/13 17:14:08;;;;;;;;;;;26.30;56.80;;;;;;6118140;23;19923;-79
2022/09/13 17:16:36;;;;;;;;;;;26.30;57.80;;;;;;6118720;23;19924;-80
2022/09/13 17:19:05;;;;;;;;;;;26.30;58.50;;;;;;6117619;23;19924;-82
2022/09/13 17:21:33;;;;;;;;;;;26.20;59.00;;;;;;6118971;23;19991;-81
2022/09/13 17:24:00;;;;;;;;;;;26.20;58.80;;;;;;6118672;23;19924;-80
2022/09/13 17:26:27;;;;;;;;;;;26.20;58.90;;;;;;6119181;23;20260;-80
2022/09/13 17:28:54;;;;;;;;;;;26.10;59.40;;;;;;6118522;23;19988;-80
2022/09/13 17:31:20;;;;;;;;;;;26.00;59.80;;;;;;6119333;23;19924;-80
2022/09/13 17:33:48;;;;;;;;;;;26.00;59.50;;;;;;6119303;23;19921;-81
2022/09/13 17:36:16;;;;;;;;;;;25.80;60.10;;;;;;6118973;23;19924;-80
2022/09/13 17:38:42;;;;;;;;;;;25.80;60.50;;;;;;6119127;23;19948;-80
2022/09/13 17:41:11;;;;;;;;;;;25.60;60.70;;;;;;6119007;23;19948;-81
2022/09/13 17:43:38;;;;;;;;;;;25.60;60.60;;;;;;6119646;23;20349;-81
2022/09/13 17:46:11;;;;;;;;;;;25.50;60.40;;;;;;6119023;23;19968;-80
2022/09/13 17:48:38;;;;;;;;;;;25.50;60.80;;;;;;6095170;23;19925;-81
2022/09/13 17:51:08;;;;;;;;;;;25.40;62.30;;;;;;6117580;23;19921;-83
2022/09/13 17:53:40;;;;;;;;;;;25.20;61.50;;;;;;6118185;23;19945;-78
2022/09/13 17:56:06;;;;;;;;;;;25.20;61.70;;;;;;6117773;23;19927;-81
2022/09/13 17:58:34;;;;;;;;;;;25.20;61.50;;;;;;6118962;23;19924;-79
2022/09/13 18:01:01;;;;;;;;;;;25.10;61.30;;;;;;6117936;23;19965;-79
2022/09/13 18:03:29;;;;;;;;;;;25.10;61.20;;;;;;6118915;23;19976;-80
2022/09/13 18:05:57;;;;;;;;;;;25.00;61.10;;;;;;6117432;23;19924;-81
2022/09/13 18:08:24;;;;;;;;;;;24.90;60.70;;;;;;6118563;23;19984;-79
2022/09/13 18:10:51;;;;;;;;;;;24.80;61.10;;;;;;6118749;23;19917;-78
2022/09/13 18:13:38;;;;;;;;;;;24.80;62.00;;;;;;6113700;23;19921;-79
2022/09/13 18:16:13;;;;;;;;;;;24.70;62.80;;;;;;6118758;23;19924;-78
2022/09/13 18:18:47;;;;;;;;;;;24.60;63.30;;;;;;6094028;23;20301;-79
2022/09/13 18:21:15;;;;;;;;;;;24.50;64.20;;;;;;6095724;23;20294;-79
2022/09/13 18:23:42;;;;;;;;;;;24.40;64.20;;;;;;6116891;23;20522;-82
2022/09/13 18:26:13;;;;;;;;;;;24.40;64.10;;;;;;6093093;23;19996;-79
2022/09/13 18:28:42;;;;;;;;;;;24.40;64.30;;;;;;6117631;23;19948;-79
2022/09/13 18:31:11;;;;;;;;;;;24.30;67.50;;;;;;6118449;23;19921;-79
2022/09/13 18:33:38;;;;;;;;;;;24.10;67.50;;;;;;6094578;23;19976;-79
2022/09/13 18:36:06;;;;;;;;;;;24.00;69.20;;;;;;6094215;23;19924;-81
2022/09/13 18:38:34;;;;;;;;;;;23.80;69.70;;;;;;6117969;23;20361;-81
2022/09/13 18:41:05;;;;;;;;;;;23.80;69.20;;;;;;6118832;23;19984;-81
2022/09/13 18:43:33;;;;;;;;;;;23.70;70.30;;;;;;6117811;23;19921;-82
2022/09/13 18:46:03;;;;;;;;;;;23.70;70.90;;;;;;6092329;23;20249;-82
2022/09/13 18:48:31;;;;;;;;;;;23.70;70.90;;;;;;6115760;23;19921;-81
2022/09/13 18:50:59;;;;;;;;;;;23.60;71.50;;;;;;6117466;23;19988;-81
2022/09/13 18:53:26;;;;;;;;;;;23.60;72.00;;;;;;6117035;23;19917;-82
2022/09/13 18:56:01;;;;;;;;;;;23.50;72.20;;;;;;6116473;23;19953;-82
2022/09/13 18:58:32;;;;;;;;;;;23.40;72.90;;;;;;6117184;23;20000;-81
2022/09/13 19:01:05;;;;;;;;;;;23.40;73.40;;;;;;6118239;23;19929;-82
2022/09/13 19:03:32;;;;;;;;;;;23.20;74.00;;;;;;6092036;23;19980;-81
2022/09/13 19:06:16;;;;;;;;;;;23.00;73.40;;;;;;6094082;23;20314;-82
2022/09/13 19:08:43;;;;;;;;;;;22.90;73.50;;;;;;6117281;23;19925;-81
2022/09/13 19:11:10;;;;;;;;;;;22.90;73.20;;;;;;6095526;23;19952;-82
2022/09/13 19:13:57;;;;;;;;;;;22.90;73.10;;;;;;6113924;23;19920;-82
2022/09/13 19:16:25;;;;;;;;;;;22.90;73.70;;;;;;6118455;23;20330;-81
2022/09/13 19:18:52;;;;;;;;;;;23.00;73.70;;;;;;6116881;23;19972;-82
2022/09/13 19:21:19;;;;;;;;;;;23.00;74.00;;;;;;6118228;23;19917;-82
2022/09/13 19:23:48;;;;;;;;;;;23.00;74.60;;;;;;6117432;23;19968;-82
2022/09/13 19:26:45;;;;;;;;;;;22.90;73.70;;;;;;6116355;23;19941;-82
2022/09/13 19:29:13;;;;;;;;;;;22.90;74.50;;;;;;6093455;23;19936;-81
2022/09/13 19:31:42;;;;;;;;;;;22.90;73.60;;;;;;6118170;23;19917;-81
2022/09/13 19:34:09;;;;;;;;;;;23.00;73.60;;;;;;6117698;23;19925;-81
2022/09/13 19:36:37;;;;;;;;;;;23.00;73.50;;;;;;6118346;23;19917;-82
2022/09/13 19:39:06;;;;;;;;;;;23.00;73.10;;;;;;6117160;23;19917;-82
2022/09/13 19:41:34;;;;;;;;;;;23.00;74.80;;;;;;6117287;23;19917;-82
2022/09/13 19:44:01;;;;;;;;;;;23.00;74.80;;;;;;6117260;23;19988;-82
2022/09/13 19:46:30;;;;;;;;;;;23.00;74.50;;;;;;6094073;23;19948;-82
2022/09/13 19:48:58;;;;;;;;;;;23.00;74.70;;;;;;6117839;23;19947;-82
2022/09/13 19:51:27;;;;;;;;;;;23.00;74.60;;;;;;6118528;23;20361;-83
2022/09/13 19:53:55;;;;;;;;;;;23.00;74.80;;;;;;6093752;23;19917;-82
2022/09/13 19:56:33;;;;;;;;;;;22.90;74.70;;;;;;6118394;23;19918;-82
2022/09/13 19:59:01;;;;;;;;;;;22.90;74.80;;;;;;6118125;23;20235;-81
2022/09/13 20:01:29;;;;;;;;;;;22.90;75.60;;;;;;6118605;23;19941;-82
2022/09/13 20:03:57;;;;;;;;;;;22.80;76.80;;;;;;6117777;23;19944;-82
2022/09/13 20:06:25;;;;;;;;;;;22.80;77.60;;;;;;6118591;23;19980;-82